Main page
METAR-TAF:

METAR-TAF

Airports :

Aydın Airport

Aydın, Turkey

latitude: 37-48-54N, longitude: 27-53-21E, elevation: 31 m

METAR: missing

Time: 00:44 (21:44 UTC)

Forecast

The report was made 8 hours and 4 minutes ago, at 13:40 UTC
Forecast valid from 15 at 15 UTC to 15 at 24 UTC
Wind 10 kt from the East
Visibility 10 km or more
Scattered clouds at a height of 3000 ft
Broken clouds at a height of 10000 ft

TAF: LTBD 151340Z 1515/1524 08010KT 9999 SCT030 BKN100

Weather observations and forecasts of more than 4000 airports (METAR and TAF reports).

The available stations are represented by yellow and red dots on the map.

Hover mouse over dot to see the name of the station.

Then click to see weather observations and forecasts.

To change the map : click on the green buttons with a black cross to zoom in, on the green button with a dash to zoom out, or on the green arrows for adjacent maps.


METAR-TAF: